Cherry Grove, Minnesota
Current Conditions -  °F | °C
As of 4:56 PM on Friday 28 Nov 2014 (Local Time) from KFKA Reporting Station
Clear Clear  
Wind Chill: 15°   Ceiling: Unl
Heat Index: 23°   Visibility: 10mi
Dew Point: 19°   Wind: 7mph
Humidity: 85%   Direction: 130°SE
Pressure: 29.82"   Gusts: NA
Location:  43.662°N, 92.3356°W
Report Text: KFKA 282256Z AUTO 13006KT 10SM CLR M05/M07 A2982 RMK AO2 T10501072
Loading
Personal Weather Stations






























Interactive Weather Map New forecast layout! Learn more

10-Day Weather Forecast

Advertisements
Track Severe Weather on mobile